Airfield :
LOGIN :

Register | Disclaimer

   EN    FR    IT 

 










Legend :    VFR   Marginal VFR   IFR   Intensive IFR   Very Intensive IFR
Visi :
Ceiling :
>= 8 km
>= 3000ft
5 to 8 km
1000 to 3000 ft
1500m to 5 km
500 to 1000 ft
800 to 1500m
200 to 500 ft
< 800m
< 200 ft
Symbols :   Thunderstorms  Fog  Heavy snow  Heavy precipitations  Wind > 20 kt
SIGMETs :     Misc.  Thunderstorms  Icing  Turbulence  Mountain Waves  Volcanic Ashes






- Airport Elevation : 297 ft
- IATA code : UIP


LFRQ - Quimper Pluguffan

CURRENT METAR :
  • 152230Z AUTO 21010KT 9999 FEW024 BKN031 BKN040 10/07 Q1001

EXPIRED METARs :
  • 152200Z AUTO 21011KT 9999 FEW028 BKN034 BKN040 10/07 Q1001 NOSIG
  • 152130Z AUTO 21009KT 9999 FEW028 SCT037 BKN054 10/06 Q1002 NOSIG
  • 152100Z AUTO 21010KT 9999 BKN028 BKN035 BKN120 10/06 Q1002 NOSIG
  • 152030Z AUTO 21010KT 9999 BKN027 BKN040 OVC130 10/06 Q1002 NOSIG
  • 152000Z AUTO 20010KT 170V230 9999 FEW026 SCT110 BKN130 09/06 Q1002 NOSIG

TAF TAF LFRQ
Valid from the 15 at 18:00 until the 16 at 18:00 UTC


151700Z 1518/1618 21012KT 9999 SCT025 BKN040
TEMPO 1518/1606 -SHRA
PROB40
TEMPO 1518/1520 24016G26KT SHRA SCT018CB
BECMG 1603/1606 12003KT
BECMG 1606/1609 OVC010
TEMPO 1609/1618 4000 -RADZ BKN006



MET'MAP, your aeronautical weather chart ! - Copyright ORBIFLY December 2007 - Disclaimer

ORBIFLY MET'MAP TEAM :

Programming & Development : Alexandra Zaïnal
Concept & original design : Baudouin d'Aumeries
Assistance for programming : Marc-Olivier Méhu
Technical & hardware support : Manuel Goepfert

Contact : metmap@orbifly.com




SOURCES & CREDITS :

   NOAA